My Meet Scores
Maddie Castle, Gymnastics X-Calibur - MyMeetScores.com
Top100 | Top Teams | Upcoming Meets | Completed Meets | Latest | Add Scores | Help| Support | Bookmark and Share

Maddie Castle, Gymnastics X-Calibur
Personal Bests
LevelVault BarsBeamFloorAA
XG9.0009.725 9.6259.52537.475
XS9.4509.825 9.8009.60038.400
Meet Scores
Date Meet Team Session Level Division Vault Bars Beam Floor AA
2021-03-18 Level 5 & Xcel Gold State Gymnastics X-Calibur 6 XG Jr A 9.000 24 8.850 18T 9.625 1 9.400 8 36.875 8
2021-02-26 Kinetic Classic 2021 Gymnastics X-Calibur 02 XG Younger 8.850 4 9.450 3T 9.625 1 9.450 9T 37.375 3
2021-02-11 SCGA Classic 2021 Gymnastics X-Calibur 1 XG Jr D 8.775 4 9.450 1 9.250 1 9.325 5 36.800 2
2021-02-11 SCGA Classic 2021 Gymnastics X-Calibur XG XG Jr D 0.000 6*
2021-02-11 SCGA Classic 2021 Gymnastics X-Calibur 0 XG Jr D 0.000 6*
2021-01-21 King Arthur Invitational Gymnastics X-Calibur 17 XG CH 8.800 12 9.475 2 9.450 2 9.525 4 37.250 4
2021-01-14 2021 Bravo Classic Gymnastics X-Calibur 6 XG Jr 8.800 14 9.300 3T 9.300 5T 9.350 4 36.750 6
2020-12-04 Wish Classic Gymnastics X-Calibur 1 XG JR 8.850 6 9.150 4 8.950 5 9.350 3T 36.300 3
2020-02-21 Kinetic Classic Gymnastics X-Calibur 10 XG Younger 9.000 61T 9.725 10T 9.325 12T 9.425 21T 37.475 12
2020-01-31 LEgacy Elite Classic Gymnastics X-Calibur 5 XG Ch 8.625 8 9.075 5 9.200 2T 8.975 8 35.875 4
2020-01-24 King Arthur Invitational Gymnastics X-Calibur 11 XG JR B 8.800 8 8.700 12 9.150 3 9.350 6T 36.000 9
2020-01-10 Leenda's Island Adventure Gymnastics X-Calibur GG9 XG 10 & Under 8.350 15 9.600 3T 8.625 7 9.375 2T 35.950 4T
2019-12-07 Home for the Holidays 2019 Gymnastics X-Calibur 5 XG Middle 8.400 10 9.300 6 8.950 3 8.775 8 35.425 8
2019-11-08 Illinois Judges Cup Gymnastics X-Calibur P6 XG All Ages 8.750 27T 8.900 16T 8.725 13T 9.225 13 35.600 14T
2019-04-13 2019 Illinois XB, XS State Championships Gymnastics X-Calibur 4 XS Ch F 9.450 9T 9.800 3T 9.675 3 9.475 9 38.400 5
2019-02-15 Women's Midwest Open Gymnastics X-Calibur 11 XS Junior B 9.375 5 9.625 5T 9.500 3 9.325 8T 37.825 3
2019-02-08 Midwest Twisters Harley Meet Womens Gymnastics X-Calibur S10 XS 9 yrs. 9.075 2 9.450 3 8.650 14 9.350 5T 36.525 7
2019-01-25 King Arthur Invitational Gymnastics X-Calibur 17 XS JR B 9.025 4 9.525 6 9.800 1 9.600 2T 37.950 2
2019-01-04 Leenda's Island Adventure Gymnastics X-Calibur P06 XS 9 Year Old 8.850 12 9.450 9T 8.950 12 9.100 9 36.350 10
2018-11-30 Ultimate Wish Classic Gymnastics X-Calibur 7 XS JR 8.925 12 9.625 4 9.250 14 9.350 4 37.150 7
2018-04-26 Xcel Region 5 Championships Gymnastics X-Calibur 5B XS Ch B 8.850 19 9.450 13 9.500 5 9.125 17 36.925 13
2018-04-06 XCEL State Championships Gymnastics X-Calibur 2A XS Ch B 8.800 22T 9.525 4T 9.575 1 9.325 7 37.225 8
2018-03-01 Derby Classic 2018 Gymnastics X-Calibur 8A XS Jr B 6.400 14 9.375 10 9.125 7 9.200 6 34.100 14
2018-02-03 Midwest Games Gymnastics X-Calibur 2 XS JRA 8.050 10 9.625 2T 9.325 5 8.800 8 35.800 8
2018-01-26 King Arthur Invitational Gymnastics X-Calibur 10 XS JRA 8.600 14 9.825 4 9.450 2 9.425 3 37.300 5
2018-01-04 Leenda's Island Adventure Gymnastics X-Calibur G07 XS 9 & Under 8.650 11T 9.750 1 9.400 6 9.250 4 37.050 8
2017-12-01 Ultimate Wish Classic Gymnastics X-Calibur 14 XS JR1 8.400 16T 9.675 3 9.000 12 9.275 9T 36.350 10
Get your scores on
a t-shirt, pin, or hoodie